createdAt,value
2023-11-26T00:01:01.451Z,96603.81
2023-11-26T00:03:28.122Z,96605.34
2023-11-26T00:05:54.873Z,96594.34
2023-11-26T00:08:21.584Z,96588.50
2023-11-26T00:10:48.400Z,96597.78
2023-11-26T00:13:15.227Z,96607.06
2023-11-26T00:15:42.019Z,96620.22
2023-11-26T00:18:09.036Z,96620.34
2023-11-26T00:20:35.801Z,96621.91
2023-11-26T00:23:02.621Z,96618.81
2023-11-26T00:25:29.495Z,96620.97
2023-11-26T00:27:56.225Z,96603.06
2023-11-26T00:30:22.982Z,96609.72
2023-11-26T00:32:49.772Z,96608.94
2023-11-26T00:35:16.957Z,96609.56
2023-11-26T00:37:44.115Z,96618.53
2023-11-26T00:40:13.410Z,96629.81
2023-11-26T00:42:40.502Z,96637.09
2023-11-26T00:45:07.509Z,96644.34
2023-11-26T00:47:34.271Z,96635.38
2023-11-26T00:50:04.615Z,96648.34
2023-11-26T00:52:33.520Z,96646.63
2023-11-26T00:55:00.778Z,96649.75
2023-11-26T00:57:27.548Z,96659.94
2023-11-26T00:59:54.260Z,96657.75
2023-11-26T01:02:24.383Z,96657.16
2023-11-26T01:04:52.205Z,96665.50
2023-11-26T01:07:19.355Z,96670.13
2023-11-26T01:09:46.030Z,96672.91
2023-11-26T01:12:12.780Z,96683.75
2023-11-26T01:14:39.683Z,96675.69
2023-11-26T01:17:06.687Z,96681.59
2023-11-26T01:19:33.765Z,96688.41
2023-11-26T01:22:00.657Z,96693.00
2023-11-26T01:24:27.574Z,96691.94
2023-11-26T01:26:54.716Z,96687.63
2023-11-26T01:29:21.446Z,96693.47
2023-11-26T01:31:48.155Z,96686.22
2023-11-26T01:34:15.005Z,96687.00
2023-11-26T01:36:42.351Z,96691.81
2023-11-26T01:39:09.329Z,96689.78
2023-11-26T01:41:36.079Z,96697.84
2023-11-26T01:44:02.805Z,96696.91
2023-11-26T01:46:30.729Z,96703.72
2023-11-26T01:48:59.977Z,96706.66
2023-11-26T01:51:30.367Z,96705.13
2023-11-26T01:53:57.804Z,96716.41
2023-11-26T01:56:25.119Z,96705.75
2023-11-26T01:58:52.470Z,96706.03
2023-11-26T02:01:22.676Z,96695.84
2023-11-26T02:03:50.914Z,96702.94
2023-11-26T02:06:17.747Z,96692.75
2023-11-26T02:08:47.043Z,96696.31
2023-11-26T02:11:13.971Z,96687.34
2023-11-26T02:13:45.578Z,96696.16
2023-11-26T02:16:12.341Z,96694.13
2023-11-26T02:18:39.273Z,96697.84
2023-11-26T02:21:06.091Z,96700.94
2023-11-26T02:23:37.448Z,96704.03
2023-11-26T02:26:10.720Z,96690.44
2023-11-26T02:28:46.712Z,96704.34
2023-11-26T02:31:13.472Z,96695.69
2023-11-26T02:33:54.252Z,96700.03
2023-11-26T02:36:23.294Z,96700.47
2023-11-26T02:38:50.254Z,96706.19
2023-11-26T02:41:17.097Z,96706.19
2023-11-26T02:43:43.793Z,96706.03
2023-11-26T02:46:10.518Z,96712.06
2023-11-26T02:48:37.990Z,96709.31
2023-11-26T02:51:04.658Z,96716.25
2023-11-26T02:53:31.406Z,96707.28
2023-11-26T02:55:58.109Z,96705.13
2023-11-26T02:58:24.845Z,96714.56
2023-11-26T03:00:52.741Z,96713.94
2023-11-26T03:03:22.508Z,96718.56
2023-11-26T03:05:51.680Z,96723.66
2023-11-26T03:08:33.636Z,96735.13
2023-11-26T03:11:19.072Z,96729.56
2023-11-26T03:13:46.058Z,96732.19
2023-11-26T03:16:13.589Z,96726.16
2023-11-26T03:18:40.333Z,96735.72
2023-11-26T03:21:08.368Z,96727.06
2023-11-26T03:23:35.074Z,96731.53
2023-11-26T03:26:01.828Z,96729.69
2023-11-26T03:28:28.720Z,96737.13
2023-11-26T03:30:57.964Z,96735.41
2023-11-26T03:33:27.593Z,96740.53
2023-11-26T03:35:54.556Z,96748.41
2023-11-26T03:38:21.359Z,96749.94
2023-11-26T03:40:48.558Z,96745.16
2023-11-26T03:43:16.161Z,96744.88
2023-11-26T03:45:43.235Z,96740.97
2023-11-26T03:48:10.269Z,96744.53
2023-11-26T03:50:37.205Z,96742.19
2023-11-26T03:53:04.022Z,96735.56
2023-11-26T03:55:31.709Z,96741.44
2023-11-26T03:57:58.525Z,96744.81
2023-11-26T04:00:25.774Z,96744.38
2023-11-26T04:02:52.551Z,96751.47
2023-11-26T04:05:19.525Z,96755.19
2023-11-26T04:07:46.450Z,96758.59
2023-11-26T04:10:17.542Z,96753.97
2023-11-26T04:12:50.041Z,96753.47
2023-11-26T04:15:23.570Z,96756.09
2023-11-26T04:17:50.594Z,96752.88
2023-11-26T04:20:17.296Z,96757.19
2023-11-26T04:22:45.837Z,96756.88
2023-11-26T04:25:12.974Z,96761.41
2023-11-26T04:27:39.708Z,96766.94
2023-11-26T04:30:08.361Z,96766.16
2023-11-26T04:32:35.141Z,96760.63
2023-11-26T04:35:02.062Z,96761.09
2023-11-26T04:37:28.733Z,96768.66
2023-11-26T04:39:55.416Z,96778.09
2023-11-26T04:42:22.513Z,96776.41
2023-11-26T04:44:49.090Z,96781.19
2023-11-26T04:47:16.109Z,96789.69
2023-11-26T04:49:42.973Z,96787.38
2023-11-26T04:52:12.640Z,96793.41
2023-11-26T04:54:39.563Z,96788.31
2023-11-26T04:57:06.241Z,96787.22
2023-11-26T04:59:33.380Z,96789.22
2023-11-26T05:02:07.351Z,96794.66
2023-11-26T05:04:34.546Z,96800.06
2023-11-26T05:07:01.290Z,96795.25
2023-11-26T05:09:27.913Z,96791.53
2023-11-26T05:11:54.662Z,96803.16
2023-11-26T05:14:21.379Z,96796.34
2023-11-26T05:16:48.935Z,96807.63
2023-11-26T05:19:16.728Z,96806.84
2023-11-26T05:21:43.564Z,96812.13
2023-11-26T05:24:11.734Z,96810.13
2023-11-26T05:26:38.524Z,96813.66
2023-11-26T05:29:06.740Z,96811.34
2023-11-26T05:31:33.549Z,96811.66
2023-11-26T05:34:00.220Z,96826.34
2023-11-26T05:36:27.641Z,96818.91
2023-11-26T05:38:54.585Z,96813.66
2023-11-26T05:41:21.340Z,96820.19
2023-11-26T05:43:48.084Z,96821.72
2023-11-26T05:46:15.501Z,96823.56
2023-11-26T05:48:43.033Z,96834.69
2023-11-26T05:51:10.759Z,96833.00
2023-11-26T05:53:37.740Z,96830.97
2023-11-26T05:56:08.453Z,96831.28
2023-11-26T05:58:35.220Z,96837.94
2023-11-26T06:01:02.066Z,96834.69
2023-11-26T06:03:29.092Z,96838.41
2023-11-26T06:05:55.849Z,96843.34
2023-11-26T06:08:22.592Z,96842.09
2023-11-26T06:10:49.270Z,96853.09
2023-11-26T06:13:16.313Z,96856.66
2023-11-26T06:15:43.508Z,96859.28
2023-11-26T06:18:11.012Z,96854.94
2023-11-26T06:20:40.681Z,96857.69
2023-11-26T06:23:07.334Z,96865.13
2023-11-26T06:25:34.124Z,96868.06
2023-11-26T06:28:00.783Z,96858.31
2023-11-26T06:30:27.733Z,96863.44
2023-11-26T06:32:55.940Z,96871.03
2023-11-26T06:35:23.072Z,96860.97
2023-11-26T06:37:50.040Z,96867.19
2023-11-26T06:40:17.145Z,96866.38
2023-11-26T06:42:43.917Z,96870.41
2023-11-26T06:45:12.145Z,96880.94
2023-11-26T06:47:39.881Z,96882.16
2023-11-26T06:50:08.296Z,96880.13
2023-11-26T06:52:35.454Z,96891.44
2023-11-26T06:55:02.825Z,96889.88
2023-11-26T06:57:30.389Z,96898.09
2023-11-26T06:59:57.422Z,96899.94
2023-11-26T07:02:24.306Z,96899.94
2023-11-26T07:04:51.536Z,96897.75
2023-11-26T07:07:21.992Z,96900.53
2023-11-26T07:09:49.273Z,96908.75
2023-11-26T07:12:16.404Z,96905.81
2023-11-26T07:14:45.715Z,96911.38
2023-11-26T07:17:13.697Z,96906.13
2023-11-26T07:19:43.998Z,96914.63
2023-11-26T07:22:12.476Z,96910.91
2023-11-26T07:24:42.807Z,96907.84
2023-11-26T07:27:09.841Z,96915.72
2023-11-26T07:29:37.976Z,96910.03
2023-11-26T07:32:05.042Z,96912.50
2023-11-26T07:34:32.249Z,96916.84
2023-11-26T07:36:59.486Z,96909.41
2023-11-26T07:39:27.714Z,96920.25
2023-11-26T07:41:54.740Z,96915.59
2023-11-26T07:44:21.743Z,96920.09
2023-11-26T07:46:48.485Z,96926.28
2023-11-26T07:49:15.821Z,96918.69
2023-11-26T07:51:42.622Z,96917.16
2023-11-26T07:54:15.794Z,96925.97
2023-11-26T07:56:50.805Z,96929.06
2023-11-26T07:59:17.826Z,96922.09
2023-11-26T08:01:51.005Z,96927.53
2023-11-26T08:04:18.838Z,96926.91
2023-11-26T08:06:49.793Z,96929.53
2023-11-26T08:09:16.998Z,96923.50
2023-11-26T08:11:47.880Z,96921.97
2023-11-26T08:14:15.766Z,96930.63
2023-11-26T08:16:47.927Z,96925.50
2023-11-26T08:19:19.520Z,96929.53
2023-11-26T08:21:47.014Z,96940.81
2023-11-26T08:24:20.179Z,96941.28
2023-11-26T08:26:48.758Z,96934.16
2023-11-26T08:29:19.792Z,96943.59
2023-11-26T08:31:49.727Z,96941.91
2023-11-26T08:34:17.551Z,96948.09
2023-11-26T08:36:45.357Z,96942.56
2023-11-26T08:39:27.920Z,96945.63
2023-11-26T08:41:55.445Z,96940.97
2023-11-26T08:44:22.159Z,96940.97
2023-11-26T08:46:49.199Z,96941.28
2023-11-26T08:49:21.982Z,96936.97
2023-11-26T08:51:49.296Z,96944.25
2023-11-26T08:54:16.480Z,96937.44
2023-11-26T08:56:44.247Z,96938.53
2023-11-26T08:59:10.943Z,96940.53
2023-11-26T09:01:40.985Z,96936.66
2023-11-26T09:04:08.445Z,96941.47
2023-11-26T09:06:35.382Z,96939.09
2023-11-26T09:09:02.107Z,96942.22
2023-11-26T09:11:28.808Z,96939.59
2023-11-26T09:13:57.880Z,96938.50
2023-11-26T09:16:24.673Z,96936.81
2023-11-26T09:18:52.444Z,96931.22
2023-11-26T09:21:20.361Z,96940.06
2023-11-26T09:23:47.166Z,96938.97
2023-11-26T09:26:14.703Z,96934.97
2023-11-26T09:28:41.490Z,96937.75
2023-11-26T09:31:10.177Z,96938.22
2023-11-26T09:33:39.327Z,96940.53
2023-11-26T09:36:06.694Z,96942.56
2023-11-26T09:38:33.585Z,96939.31
2023-11-26T09:41:00.422Z,96940.41
2023-11-26T09:43:32.042Z,96945.84
2023-11-26T09:45:58.914Z,96938.72
2023-11-26T09:48:25.977Z,96939.94
2023-11-26T09:50:55.359Z,96938.41
2023-11-26T09:53:23.342Z,96931.09
2023-11-26T09:55:50.998Z,96928.03
2023-11-26T09:58:18.474Z,96925.84
2023-11-26T10:00:45.413Z,96924.94
2023-11-26T10:03:12.309Z,96934.81
2023-11-26T10:05:39.908Z,96947.38
2023-11-26T10:08:07.229Z,96939.94
2023-11-26T10:10:48.523Z,96940.41
2023-11-26T10:13:15.289Z,96934.69
2023-11-26T10:15:42.690Z,96930.34
2023-11-26T10:18:10.832Z,96919.66
2023-11-26T10:20:46.644Z,96927.41
2023-11-26T10:23:16.726Z,96915.78
2023-11-26T10:25:44.859Z,96916.72
2023-11-26T10:28:18.368Z,96913.47
2023-11-26T10:30:45.625Z,96913.00
2023-11-26T10:33:13.929Z,96906.31
2023-11-26T10:35:57.452Z,96913.66
2023-11-26T10:38:29.528Z,96905.75
2023-11-26T10:40:57.680Z,96909.41
2023-11-26T10:43:25.111Z,96905.13
2023-11-26T10:45:52.733Z,96902.31
2023-11-26T10:48:21.964Z,96903.09
2023-11-26T10:51:26.417Z,96902.94
2023-11-26T10:54:15.275Z,96905.44
2023-11-26T10:56:44.775Z,96906.78
2023-11-26T10:59:20.738Z,96912.56
2023-11-26T11:01:47.881Z,96911.47
2023-11-26T11:04:16.330Z,96907.56
2023-11-26T11:06:46.976Z,96906.78
2023-11-26T11:09:28.721Z,96903.56
2023-11-26T11:12:08.499Z,96906.53
2023-11-26T11:14:35.642Z,96898.13
2023-11-26T11:17:02.387Z,96899.53
2023-11-26T11:19:51.539Z,96897.66
2023-11-26T11:22:18.649Z,96896.56
2023-11-26T11:24:46.287Z,96888.88
2023-11-26T11:27:13.050Z,96887.91
2023-11-26T11:29:40.399Z,96889.13
2023-11-26T11:32:07.324Z,96879.03
2023-11-26T11:34:34.867Z,96879.44
2023-11-26T11:37:04.164Z,96878.00
2023-11-26T11:39:46.436Z,96875.31
2023-11-26T11:42:15.120Z,96865.78
2023-11-26T11:44:45.951Z,96872.00
2023-11-26T11:47:33.390Z,96871.38
2023-11-26T11:50:00.369Z,96877.72
2023-11-26T11:52:27.383Z,96879.94
2023-11-26T11:55:06.328Z,96880.19
2023-11-26T11:57:48.374Z,96877.78
2023-11-26T12:00:22.401Z,96881.13
2023-11-26T12:02:51.008Z,96878.88
2023-11-26T12:05:28.544Z,96877.19
2023-11-26T12:07:59.365Z,96875.03
2023-11-26T12:10:34.041Z,96872.91
2023-11-26T12:13:05.789Z,96869.69
2023-11-26T12:15:33.289Z,96877.00
2023-11-26T12:18:01.887Z,96871.91
2023-11-26T12:20:29.569Z,96876.41
2023-11-26T12:22:57.184Z,96875.31
2023-11-26T12:25:24.062Z,96884.00
2023-11-26T12:28:06.506Z,96880.13
2023-11-26T12:30:40.045Z,96877.19
2023-11-26T12:33:08.983Z,96879.03
2023-11-26T12:35:39.270Z,96880.91
2023-11-26T12:38:07.987Z,96879.38
2023-11-26T12:40:37.316Z,96873.66
2023-11-26T12:43:04.541Z,96873.66
2023-11-26T12:45:31.472Z,96869.00
2023-11-26T12:47:58.619Z,96870.84
2023-11-26T12:50:27.488Z,96872.28
2023-11-26T12:52:55.095Z,96871.50
2023-11-26T12:55:22.342Z,96864.22
2023-11-26T12:57:49.426Z,96877.38
2023-11-26T13:00:17.299Z,96873.22
2023-11-26T13:02:49.864Z,96878.63
2023-11-26T13:05:28.693Z,96861.91
2023-11-26T13:07:56.884Z,96851.03
2023-11-26T13:10:43.633Z,96856.13
2023-11-26T13:13:34.464Z,96857.50
2023-11-26T13:16:04.546Z,96847.41
2023-11-26T13:18:32.038Z,96853.28
2023-11-26T13:21:07.241Z,96859.78
2023-11-26T13:23:34.536Z,96856.53
2023-11-26T13:26:01.923Z,96854.22
2023-11-26T13:28:31.154Z,96848.00
2023-11-26T13:31:00.744Z,96851.53
2023-11-26T13:33:27.972Z,96852.91
2023-11-26T13:35:57.237Z,96842.19
2023-11-26T13:38:23.928Z,96846.19
2023-11-26T13:40:52.453Z,96846.31
2023-11-26T13:43:19.901Z,96847.09
2023-11-26T13:45:47.070Z,96837.75
2023-11-26T13:48:14.910Z,96842.72
2023-11-26T13:50:41.789Z,96848.19
2023-11-26T13:53:10.819Z,96846.97
2023-11-26T13:55:37.896Z,96845.53
2023-11-26T13:58:04.918Z,96846.63
2023-11-26T14:00:35.445Z,96845.41
2023-11-26T14:03:04.009Z,96842.13
2023-11-26T14:05:31.055Z,96842.72
2023-11-26T14:07:57.792Z,96844.72
2023-11-26T14:10:28.520Z,96840.03
2023-11-26T14:12:57.622Z,96842.66
2023-11-26T14:15:26.143Z,96847.94
2023-11-26T14:17:53.392Z,96841.91
2023-11-26T14:20:21.153Z,96841.69
2023-11-26T14:22:54.253Z,96835.00
2023-11-26T14:25:21.245Z,96837.44
2023-11-26T14:27:49.690Z,96833.75
2023-11-26T14:30:18.606Z,96845.84
2023-11-26T14:32:48.636Z,96851.56
2023-11-26T14:35:16.401Z,96852.13
2023-11-26T14:37:44.228Z,96840.75
2023-11-26T14:40:12.475Z,96847.81
2023-11-26T14:42:43.574Z,96844.53
2023-11-26T14:45:14.404Z,96837.84
2023-11-26T14:47:47.983Z,96840.00
2023-11-26T14:50:14.989Z,96840.47
2023-11-26T14:52:42.094Z,96848.06
2023-11-26T14:55:14.616Z,96845.63
2023-11-26T14:57:43.081Z,96839.25
2023-11-26T15:00:10.979Z,96843.88
2023-11-26T15:02:39.145Z,96845.09
2023-11-26T15:05:09.447Z,96840.16
2023-11-26T15:07:36.311Z,96842.31
2023-11-26T15:10:04.207Z,96838.13
2023-11-26T15:12:31.338Z,96837.84
2023-11-26T15:15:00.490Z,96839.38
2023-11-26T15:17:27.433Z,96840.16
2023-11-26T15:19:55.477Z,96844.66
2023-11-26T15:22:22.243Z,96836.28
2023-11-26T15:24:49.698Z,96832.75
2023-11-26T15:27:17.210Z,96831.53
2023-11-26T15:29:45.456Z,96832.94
2023-11-26T15:32:13.084Z,96829.53
2023-11-26T15:34:40.743Z,96828.31
2023-11-26T15:37:10.626Z,96823.38
2023-11-26T15:39:37.601Z,96819.03
2023-11-26T15:42:05.205Z,96820.34
2023-11-26T15:44:31.984Z,96820.28
2023-11-26T15:46:58.841Z,96817.56
2023-11-26T15:49:26.818Z,96822.91
2023-11-26T15:51:54.230Z,96826.22
2023-11-26T15:54:21.103Z,96825.81
2023-11-26T15:56:48.259Z,96822.78
2023-11-26T15:59:15.117Z,96831.31
2023-11-26T16:01:42.311Z,96833.19
2023-11-26T16:04:09.387Z,96830.38
2023-11-26T16:06:36.264Z,96827.88
2023-11-26T16:09:03.096Z,96824.13
2023-11-26T16:11:32.081Z,96820.72
2023-11-26T16:13:59.855Z,96822.47
2023-11-26T16:16:26.674Z,96822.97
2023-11-26T16:18:53.825Z,96821.47
2023-11-26T16:21:20.766Z,96821.97
2023-11-26T16:23:47.540Z,96818.28
2023-11-26T16:26:14.619Z,96819.09
2023-11-26T16:28:41.497Z,96831.19
2023-11-26T16:31:10.266Z,96821.31
2023-11-26T16:33:55.790Z,96823.31
2023-11-26T16:36:23.735Z,96823.94
2023-11-26T16:38:52.663Z,96819.44
2023-11-26T16:41:19.621Z,96821.47
2023-11-26T16:43:51.017Z,96826.28
2023-11-26T16:46:19.265Z,96812.03
2023-11-26T16:48:47.075Z,96815.28
2023-11-26T16:51:14.287Z,96809.38
2023-11-26T16:53:42.460Z,96809.06
2023-11-26T16:56:10.770Z,96815.72
2023-11-26T16:58:40.087Z,96808.47
2023-11-26T17:01:09.046Z,96811.25
2023-11-26T17:03:36.409Z,96806.78
2023-11-26T17:06:04.781Z,96820.91
2023-11-26T17:08:32.604Z,96815.03
2023-11-26T17:11:00.084Z,96814.09
2023-11-26T17:13:27.682Z,96814.41
2023-11-26T17:15:54.927Z,96801.88
2023-11-26T17:18:22.273Z,96811.31
2023-11-26T17:20:49.299Z,96801.69
2023-11-26T17:23:17.551Z,96797.22
2023-11-26T17:25:47.782Z,96785.59
2023-11-26T17:28:19.357Z,96789.59
2023-11-26T17:30:49.936Z,96791.94
2023-11-26T17:33:18.654Z,96781.44
2023-11-26T17:35:46.144Z,96780.97
2023-11-26T17:38:13.198Z,96783.59
2023-11-26T17:40:40.496Z,96782.50
2023-11-26T17:43:07.460Z,96789.78
2023-11-26T17:45:34.911Z,96785.63
2023-11-26T17:48:02.227Z,96778.78
2023-11-26T17:50:29.905Z,96774.28
2023-11-26T17:53:04.043Z,96776.63
2023-11-26T17:55:37.285Z,96769.84
2023-11-26T17:58:04.450Z,96766.88
2023-11-26T18:00:33.004Z,96763.78
2023-11-26T18:03:00.047Z,96770.31
2023-11-26T18:05:28.040Z,96764.13
2023-11-26T18:07:58.457Z,96768.91
2023-11-26T18:10:26.008Z,96768.25
2023-11-26T18:12:52.851Z,96767.50
2023-11-26T18:15:19.919Z,96770.59
2023-11-26T18:17:47.015Z,96768.75
2023-11-26T18:20:18.318Z,96775.22
2023-11-26T18:22:45.327Z,96771.97
2023-11-26T18:25:13.305Z,96770.75
2023-11-26T18:27:40.357Z,96771.22
2023-11-26T18:30:07.485Z,96774.19
2023-11-26T18:32:34.293Z,96779.75
2023-11-26T18:35:01.361Z,96770.94
2023-11-26T18:37:29.533Z,96774.19
2023-11-26T18:39:56.814Z,96783.47
2023-11-26T18:42:23.664Z,96786.53
2023-11-26T18:44:50.553Z,96788.53
2023-11-26T18:47:17.566Z,96784.81
2023-11-26T18:49:44.411Z,96785.78
2023-11-26T18:52:15.657Z,96784.38
2023-11-26T18:54:44.979Z,96784.25
2023-11-26T18:57:11.972Z,96786.13
2023-11-26T18:59:41.732Z,96781.91
2023-11-26T19:02:08.673Z,96777.59
2023-11-26T19:04:39.297Z,96773.88
2023-11-26T19:07:07.215Z,96781.63
2023-11-26T19:09:34.483Z,96780.53
2023-11-26T19:12:01.395Z,96772.00
2023-11-26T19:14:28.640Z,96772.47
2023-11-26T19:16:55.364Z,96772.47
2023-11-26T19:19:22.287Z,96765.66
2023-11-26T19:21:50.621Z,96771.84
2023-11-26T19:24:17.509Z,96772.31
2023-11-26T19:26:45.608Z,96773.41
2023-11-26T19:29:13.075Z,96769.53
2023-11-26T19:31:40.395Z,96766.00
2023-11-26T19:34:07.527Z,96765.72
2023-11-26T19:36:34.449Z,96766.63
2023-11-26T19:39:01.365Z,96771.44
2023-11-26T19:41:28.199Z,96767.41
2023-11-26T19:43:54.897Z,96766.34
2023-11-26T19:46:21.636Z,96776.53
2023-11-26T19:48:49.152Z,96776.69
2023-11-26T19:51:19.530Z,96768.47
2023-11-26T19:53:47.164Z,96766.00
2023-11-26T19:56:15.925Z,96771.72
2023-11-26T19:58:43.264Z,96765.84
2023-11-26T20:01:13.424Z,96759.81
2023-11-26T20:03:41.875Z,96764.31
2023-11-26T20:06:09.241Z,96756.09
2023-11-26T20:08:36.170Z,96753.47
2023-11-26T20:11:04.740Z,96747.59
2023-11-26T20:13:32.969Z,96743.09
2023-11-26T20:16:00.052Z,96738.78
2023-11-26T20:18:26.845Z,96744.22
2023-11-26T20:20:54.486Z,96735.38
2023-11-26T20:23:22.676Z,96732.63
2023-11-26T20:25:52.070Z,96725.97
2023-11-26T20:28:20.204Z,96724.56
2023-11-26T20:30:49.514Z,96718.69
2023-11-26T20:33:19.168Z,96713.09
2023-11-26T20:35:47.013Z,96721.00
2023-11-26T20:38:13.901Z,96712.50
2023-11-26T20:40:40.745Z,96711.75
2023-11-26T20:43:07.577Z,96711.28
2023-11-26T20:45:34.545Z,96715.91
2023-11-26T20:48:01.593Z,96710.34
2023-11-26T20:50:28.532Z,96717.00
2023-11-26T20:52:55.431Z,96711.28
2023-11-26T20:55:32.160Z,96707.09
2023-11-26T20:57:59.265Z,96703.25
2023-11-26T21:00:26.297Z,96700.31
2023-11-26T21:02:53.460Z,96704.97
2023-11-26T21:05:20.380Z,96700.00
2023-11-26T21:07:47.057Z,96706.94
2023-11-26T21:10:13.905Z,96697.84
2023-11-26T21:12:40.807Z,96700.00
2023-11-26T21:15:10.490Z,96697.22
2023-11-26T21:17:39.553Z,96689.00
2023-11-26T21:20:08.726Z,96684.84
2023-11-26T21:22:36.492Z,96692.91
2023-11-26T21:25:07.384Z,96684.56
2023-11-26T21:27:34.222Z,96677.91
2023-11-26T21:30:01.758Z,96684.56
2023-11-26T21:32:28.577Z,96679.78
2023-11-26T21:34:55.412Z,96679.16
2023-11-26T21:37:22.562Z,96684.56
2023-11-26T21:39:49.194Z,96678.69
2023-11-26T21:42:17.262Z,96670.63
2023-11-26T21:44:44.058Z,96679.59
2023-11-26T21:47:10.823Z,96673.13
2023-11-26T21:49:38.127Z,96671.25
2023-11-26T21:52:05.123Z,96664.63
2023-11-26T21:54:32.007Z,96659.53
2023-11-26T21:56:58.749Z,96659.22
2023-11-26T21:59:25.495Z,96651.00
2023-11-26T22:01:53.035Z,96657.38
2023-11-26T22:04:20.262Z,96640.69
2023-11-26T22:06:48.286Z,96643.91
2023-11-26T22:09:15.845Z,96637.88
2023-11-26T22:11:42.848Z,96633.13
2023-11-26T22:14:09.669Z,96634.34
2023-11-26T22:16:37.826Z,96626.94
2023-11-26T22:19:06.651Z,96627.88
2023-11-26T22:21:34.013Z,96622.91
2023-11-26T22:24:04.133Z,96621.53
2023-11-26T22:26:37.417Z,96629.25
2023-11-26T22:29:04.185Z,96614.56
2023-11-26T22:31:33.604Z,96614.56
2023-11-26T22:34:01.973Z,96617.81
2023-11-26T22:36:31.448Z,96611.47
2023-11-26T22:38:59.129Z,96612.69
2023-11-26T22:41:27.294Z,96617.94
2023-11-26T22:43:55.632Z,96604.50
2023-11-26T22:46:27.655Z,96611.78
2023-11-26T22:48:55.981Z,96613.47
2023-11-26T22:51:22.887Z,96607.00
2023-11-26T22:53:51.021Z,96599.41
2023-11-26T22:56:19.202Z,96591.97
2023-11-26T22:58:46.354Z,96591.97
2023-11-26T23:01:14.019Z,96595.66
2023-11-26T23:03:41.754Z,96587.78
2023-11-26T23:06:09.553Z,96589.03
2023-11-26T23:08:36.257Z,96593.03
2023-11-26T23:11:03.066Z,96588.09
2023-11-26T23:13:31.714Z,96585.78
2023-11-26T23:15:58.868Z,96589.81
2023-11-26T23:18:26.775Z,96583.00
2023-11-26T23:20:54.630Z,96578.22
2023-11-26T23:23:33.770Z,96579.78
2023-11-26T23:26:05.362Z,96581.75
2023-11-26T23:28:32.014Z,96575.72
2023-11-26T23:30:58.832Z,96565.19
2023-11-26T23:33:25.895Z,96556.88
2023-11-26T23:35:52.592Z,96553.91
2023-11-26T23:38:19.202Z,96552.22
2023-11-26T23:40:47.623Z,96549.13
2023-11-26T23:43:14.920Z,96560.59
2023-11-26T23:45:43.041Z,96562.56
2023-11-26T23:48:11.133Z,96550.53
2023-11-26T23:50:37.839Z,96544.19
2023-11-26T23:53:04.477Z,96555.78
2023-11-26T23:55:31.179Z,96557.78
2023-11-26T23:57:59.475Z,96565.03
